createdAt,value
2022-09-14T00:00:01.121Z,74.5
2022-09-14T00:01:24.162Z,74.4
2022-09-14T00:02:01.443Z,73.9
2022-09-14T00:03:01.216Z,74
2022-09-14T00:04:02.521Z,73.3
2022-09-14T00:05:01.965Z,72.1
2022-09-14T00:06:11.266Z,71.9
2022-09-14T00:07:01.074Z,71.8
2022-09-14T00:08:01.077Z,72
2022-09-14T00:09:01.097Z,72.4
2022-09-14T00:10:01.090Z,72.6
2022-09-14T00:11:13.413Z,72.4
2022-09-14T00:12:01.779Z,72.4
2022-09-14T00:13:01.109Z,72.5
2022-09-14T00:14:01.220Z,71.7
2022-09-14T00:15:01.438Z,71.8
2022-09-14T00:16:01.239Z,71.7
2022-09-14T00:17:01.208Z,71.8
2022-09-14T00:18:01.048Z,72.7
2022-09-14T00:19:01.049Z,72.5
2022-09-14T00:20:01.047Z,74.4
2022-09-14T00:21:01.067Z,74
2022-09-14T00:22:01.063Z,73.6
2022-09-14T00:23:01.069Z,74.8
2022-09-14T00:24:01.328Z,75.3
2022-09-14T00:25:01.054Z,75.5
2022-09-14T00:26:01.124Z,75.2
2022-09-14T00:27:01.098Z,75.6
2022-09-14T00:28:01.154Z,76.3
2022-09-14T00:29:01.107Z,76.6
2022-09-14T00:30:01.381Z,76.3
2022-09-14T00:31:01.440Z,76.5
2022-09-14T00:32:02.846Z,77.5
2022-09-14T00:33:02.930Z,77.7
2022-09-14T00:34:01.058Z,77.2
2022-09-14T00:35:01.060Z,78.1
2022-09-14T00:36:01.060Z,78.8
2022-09-14T00:37:01.080Z,79.8
2022-09-14T00:38:01.078Z,81.4
2022-09-14T00:39:01.148Z,82.7
2022-09-14T00:40:02.205Z,83.7
2022-09-14T00:41:02.170Z,84.1
2022-09-14T00:42:01.769Z,85.1
2022-09-14T00:43:01.777Z,85.8
2022-09-14T00:44:01.933Z,86.1
2022-09-14T00:45:01.370Z,86.5
2022-09-14T00:46:01.186Z,86.8
2022-09-14T00:47:01.941Z,86.6
2022-09-14T00:48:01.951Z,86.5
2022-09-14T00:49:01.042Z,86.7
2022-09-14T00:50:01.154Z,86.5
2022-09-14T00:51:00.737Z,86.5
2022-09-14T00:52:00.336Z,86.4
2022-09-14T00:52:59.925Z,86.4
2022-09-14T00:53:59.550Z,86.4
2022-09-14T00:55:01.137Z,86.3
2022-09-14T00:56:01.272Z,86.4
2022-09-14T00:57:01.104Z,86.1
2022-09-14T00:58:01.107Z,86.3
2022-09-14T00:59:01.123Z,86.2
2022-09-14T01:00:01.195Z,85.9
2022-09-14T01:01:01.628Z,85.8
2022-09-14T01:02:01.362Z,85.7
2022-09-14T01:03:01.127Z,85.8
2022-09-14T01:04:01.148Z,85.7
2022-09-14T01:05:01.043Z,85.4
2022-09-14T01:06:01.045Z,85.6
2022-09-14T01:07:01.165Z,85.6
2022-09-14T01:08:01.177Z,85.4
2022-09-14T01:09:01.197Z,85.3
2022-09-14T01:10:01.073Z,85.1
2022-09-14T01:11:01.098Z,84.7
2022-09-14T01:12:01.075Z,85
2022-09-14T01:13:00.791Z,85.1
2022-09-14T01:14:00.510Z,84.9
2022-09-14T01:15:00.306Z,84.7
2022-09-14T01:16:00.318Z,84.6
2022-09-14T01:17:00.086Z,84.5
2022-09-14T01:17:59.789Z,84.3
2022-09-14T01:19:02.162Z,83.8
2022-09-14T01:20:01.580Z,83.4
2022-09-14T01:21:01.966Z,83.4
2022-09-14T01:22:02.079Z,83.4
2022-09-14T01:23:00.756Z,83.4
2022-09-14T01:24:00.352Z,83.5
2022-09-14T01:25:00.044Z,83.7
2022-09-14T01:25:59.910Z,83.8
2022-09-14T01:26:59.542Z,83.8
2022-09-14T01:28:01.125Z,83.8
2022-09-14T01:29:01.105Z,83.9
2022-09-14T01:30:01.105Z,84
2022-09-14T01:31:01.422Z,84
2022-09-14T01:32:02.016Z,83.9
2022-09-14T01:33:04.178Z,83.9
2022-09-14T01:34:01.142Z,83.9
2022-09-14T01:35:01.140Z,84
2022-09-14T01:36:01.136Z,84.3
2022-09-14T01:37:05.452Z,84.3
2022-09-14T01:38:01.445Z,84.5
2022-09-14T01:39:01.066Z,84.6
2022-09-14T01:40:01.193Z,84.4
2022-09-14T01:41:01.076Z,84.6
2022-09-14T01:42:08.622Z,84.6
2022-09-14T01:43:01.102Z,85
2022-09-14T01:44:00.672Z,85
2022-09-14T01:45:00.377Z,84.7
2022-09-14T01:46:00.007Z,84.5
2022-09-14T01:47:12.325Z,84.7
2022-09-14T01:48:01.121Z,84.3
2022-09-14T01:49:00.996Z,83.9
2022-09-14T01:50:01.135Z,83.6
2022-09-14T01:51:01.140Z,83.5
2022-09-14T01:52:16.722Z,83.5
2022-09-14T01:53:01.057Z,83.2
2022-09-14T01:54:01.072Z,83.1
2022-09-14T01:55:01.061Z,83
2022-09-14T01:56:01.064Z,82.7
2022-09-14T01:57:01.076Z,82.7
2022-09-14T01:58:01.115Z,82.6
2022-09-14T01:59:01.485Z,82.8
2022-09-14T02:00:04.271Z,82.7
2022-09-14T02:01:01.171Z,82.7
2022-09-14T02:02:01.377Z,82.5
2022-09-14T02:03:01.112Z,82.5
2022-09-14T02:04:02.045Z,82.2
2022-09-14T02:05:02.033Z,81.7
2022-09-14T02:06:01.190Z,81.3
2022-09-14T02:07:01.769Z,81.2
2022-09-14T02:08:01.042Z,81
2022-09-14T02:09:01.057Z,80.5
2022-09-14T02:10:01.063Z,80.1
2022-09-14T02:11:01.068Z,79.7
2022-09-14T02:12:01.076Z,79.7
2022-09-14T02:13:01.061Z,79.5
2022-09-14T02:14:01.096Z,79.2
2022-09-14T02:15:01.350Z,78.8
2022-09-14T02:15:59.913Z,78.8
2022-09-14T02:16:59.567Z,79.2
2022-09-14T02:18:01.118Z,79.2
2022-09-14T02:19:01.123Z,78.8
2022-09-14T02:20:01.135Z,77.7
2022-09-14T02:21:01.128Z,76.8
2022-09-14T02:22:01.197Z,77
2022-09-14T02:23:01.056Z,77.4
2022-09-14T02:24:01.410Z,77.4
2022-09-14T02:25:01.434Z,77.2
2022-09-14T02:26:08.170Z,77.4
2022-09-14T02:27:01.177Z,77.2
2022-09-14T02:28:01.044Z,77.3
2022-09-14T02:29:01.026Z,77.2
2022-09-14T02:30:01.047Z,76.7
2022-09-14T02:31:01.193Z,76.3
2022-09-14T02:32:01.100Z,75.9
2022-09-14T02:33:01.490Z,75.7
2022-09-14T02:34:02.239Z,76.1
2022-09-14T02:35:01.159Z,76.4
2022-09-14T02:36:01.140Z,76.6
2022-09-14T02:37:01.138Z,76.7
2022-09-14T02:38:01.348Z,76.3
2022-09-14T02:39:01.143Z,76.7
2022-09-14T02:40:01.157Z,76.4
2022-09-14T02:41:01.058Z,76.4
2022-09-14T02:42:01.066Z,76.2
2022-09-14T02:43:01.474Z,76.3
2022-09-14T02:44:01.087Z,76.1
2022-09-14T02:45:01.076Z,75.7
2022-09-14T02:46:01.031Z,74.7
2022-09-14T02:47:00.663Z,74.2
2022-09-14T02:48:00.284Z,73.1
2022-09-14T02:49:00.003Z,73.3
2022-09-14T02:49:59.777Z,74
2022-09-14T02:51:01.415Z,75.2
2022-09-14T02:52:02.557Z,75.7
2022-09-14T02:53:02.043Z,75.7
2022-09-14T02:54:01.053Z,75.7
2022-09-14T02:55:01.139Z,76
2022-09-14T02:56:01.059Z,75.9
2022-09-14T02:57:01.061Z,75.7
2022-09-14T02:58:01.073Z,75.7
2022-09-14T02:59:01.079Z,75.6
2022-09-14T03:00:01.501Z,75.1
2022-09-14T03:01:01.263Z,74
2022-09-14T03:02:01.087Z,73.8
2022-09-14T03:03:01.603Z,74.6
2022-09-14T03:04:01.106Z,75.5
2022-09-14T03:05:01.299Z,75.5
2022-09-14T03:06:01.120Z,75.8
2022-09-14T03:07:01.049Z,76.1
2022-09-14T03:08:03.473Z,76
2022-09-14T03:09:01.437Z,76.2
2022-09-14T03:10:01.046Z,76
2022-09-14T03:11:01.043Z,75.6
2022-09-14T03:12:01.054Z,75.5
2022-09-14T03:13:05.536Z,75.1
2022-09-14T03:14:01.388Z,74.8
2022-09-14T03:15:02.098Z,74.9
2022-09-14T03:16:02.185Z,74.2
2022-09-14T03:17:01.091Z,73.7
2022-09-14T03:18:12.299Z,73.6
2022-09-14T03:19:01.115Z,73
2022-09-14T03:20:01.107Z,72.7
2022-09-14T03:21:01.112Z,73
2022-09-14T03:22:01.044Z,72.2
2022-09-14T03:23:11.152Z,72.1
2022-09-14T03:24:01.537Z,71.5
2022-09-14T03:25:01.024Z,70.9
2022-09-14T03:26:01.157Z,70.3
2022-09-14T03:27:00.840Z,70.5
2022-09-14T03:28:13.272Z,70.8
2022-09-14T03:29:01.753Z,70.8
2022-09-14T03:30:01.778Z,70.7
2022-09-14T03:31:01.802Z,70.3
2022-09-14T03:32:01.099Z,70.3
2022-09-14T03:33:16.205Z,70
2022-09-14T03:34:02.269Z,69.8
2022-09-14T03:35:01.111Z,69.5
2022-09-14T03:36:01.153Z,69.9
2022-09-14T03:37:01.117Z,69.5
2022-09-14T03:38:01.124Z,69.7
2022-09-14T03:39:01.156Z,69.5
2022-09-14T03:40:01.265Z,68.7
2022-09-14T03:41:01.302Z,68.5
2022-09-14T03:42:01.478Z,68.6
2022-09-14T03:43:01.988Z,68.4
2022-09-14T03:44:01.091Z,68.6
2022-09-14T03:45:00.920Z,68.7
2022-09-14T03:46:00.555Z,69.2
2022-09-14T03:47:00.411Z,71.3
2022-09-14T03:48:00.152Z,73
2022-09-14T03:48:59.856Z,74.5
2022-09-14T03:50:01.526Z,74.9
2022-09-14T03:51:01.520Z,74.7
2022-09-14T03:52:01.784Z,75
2022-09-14T03:53:01.209Z,75.3
2022-09-14T03:54:01.146Z,75.4
2022-09-14T03:55:01.036Z,76.2
2022-09-14T03:56:01.141Z,76.4
2022-09-14T03:57:01.432Z,76.5
2022-09-14T03:58:01.164Z,76.6
2022-09-14T03:59:01.485Z,77.1
2022-09-14T04:00:00.874Z,76.7
2022-09-14T04:01:01.203Z,76.4
2022-09-14T04:02:01.197Z,76.7
2022-09-14T04:03:04.018Z,77
2022-09-14T04:04:01.096Z,77.3
2022-09-14T04:05:01.025Z,77.5
2022-09-14T04:06:01.487Z,77.1
2022-09-14T04:07:02.172Z,76.9
2022-09-14T04:08:01.111Z,76.6
2022-09-14T04:09:00.694Z,76.3
2022-09-14T04:10:00.321Z,75.8
2022-09-14T04:11:00.005Z,75.1
2022-09-14T04:11:59.597Z,74.2
2022-09-14T04:13:01.241Z,73.9
2022-09-14T04:14:01.125Z,74.6
2022-09-14T04:15:01.463Z,74.6
2022-09-14T04:16:01.128Z,74.5
2022-09-14T04:17:01.077Z,74.2
2022-09-14T04:18:01.082Z,73.8
2022-09-14T04:19:01.098Z,75.1
2022-09-14T04:20:01.088Z,75.9
2022-09-14T04:21:05.793Z,76.1
2022-09-14T04:22:01.114Z,76.5
2022-09-14T04:23:01.223Z,75.8
2022-09-14T04:24:17.497Z,75.6
2022-09-14T04:25:00.823Z,75.8
2022-09-14T04:26:00.521Z,75.3
2022-09-14T04:27:00.209Z,75.2
2022-09-14T04:28:19.245Z,76.1
2022-09-14T04:29:01.852Z,76.9
2022-09-14T04:30:00.547Z,77.2
2022-09-14T04:31:00.327Z,77.5
2022-09-14T04:32:00.035Z,77.4
2022-09-14T04:32:59.629Z,77.2
2022-09-14T04:34:01.179Z,76.4
2022-09-14T04:35:01.063Z,75.4
2022-09-14T04:36:01.033Z,75.2
2022-09-14T04:37:01.040Z,75.3
2022-09-14T04:38:01.110Z,75.2
2022-09-14T04:39:01.469Z,75.1
2022-09-14T04:40:01.582Z,75.3
2022-09-14T04:41:01.141Z,75.9
2022-09-14T04:42:01.244Z,76.1
2022-09-14T04:43:01.040Z,76.3
2022-09-14T04:44:01.164Z,76.6
2022-09-14T04:45:01.039Z,76.5
2022-09-14T04:46:01.209Z,76.2
2022-09-14T04:47:01.283Z,75.9
2022-09-14T04:48:03.938Z,76.2
2022-09-14T04:49:01.567Z,76.7
2022-09-14T04:50:01.315Z,76.9
2022-09-14T04:51:01.527Z,76.3
2022-09-14T04:52:01.113Z,76.4
2022-09-14T04:53:01.116Z,75.8
2022-09-14T04:54:04.408Z,75.7
2022-09-14T04:55:01.044Z,75.5
2022-09-14T04:56:01.126Z,76.1
2022-09-14T04:57:01.517Z,76
2022-09-14T04:58:01.250Z,76.2
2022-09-14T04:59:07.917Z,76.1
2022-09-14T05:00:01.296Z,76.1
2022-09-14T05:01:01.681Z,74.7
2022-09-14T05:02:01.221Z,75.2
2022-09-14T05:03:01.503Z,75.2
2022-09-14T05:04:11.624Z,75.1
2022-09-14T05:05:01.116Z,75.5
2022-09-14T05:06:01.769Z,75.4
2022-09-14T05:07:01.548Z,74.4
2022-09-14T05:08:01.603Z,69.9
2022-09-14T05:09:14.715Z,62.4
2022-09-14T05:10:01.414Z,59.2
2022-09-14T05:11:01.432Z,54.9
2022-09-14T05:12:02.044Z,51.2
2022-09-14T05:13:02.169Z,45.7
2022-09-14T05:14:01.052Z,42.8
2022-09-14T05:15:00.739Z,41.6
2022-09-14T05:16:00.524Z,41.6
2022-09-14T05:17:00.442Z,41.3
2022-09-14T05:18:00.035Z,41.8
2022-09-14T05:19:00.347Z,42.2
2022-09-14T05:19:59.939Z,43
2022-09-14T05:20:59.647Z,43.6
2022-09-14T05:22:01.284Z,44.5
2022-09-14T05:23:01.105Z,45.3
2022-09-14T05:24:01.266Z,45.6
2022-09-14T05:25:01.445Z,45
2022-09-14T05:26:01.501Z,45.1
2022-09-14T05:27:02.388Z,45.1
2022-09-14T05:28:02.155Z,44.7
2022-09-14T05:29:02.153Z,45.1
2022-09-14T05:30:01.052Z,45.4
2022-09-14T05:31:01.150Z,44.7
2022-09-14T05:32:01.159Z,45
2022-09-14T05:33:01.380Z,45
2022-09-14T05:34:01.068Z,45.2
2022-09-14T05:35:01.112Z,45.5
2022-09-14T05:36:01.116Z,45.3
2022-09-14T05:37:01.472Z,45.5
2022-09-14T05:38:01.521Z,45.5
2022-09-14T05:39:01.103Z,45.7
2022-09-14T05:40:01.107Z,46.1
2022-09-14T05:41:01.027Z,46.7
2022-09-14T05:42:01.636Z,47.2
2022-09-14T05:43:01.267Z,47.7
2022-09-14T05:44:01.576Z,48.5
2022-09-14T05:45:01.952Z,48.8
2022-09-14T05:46:01.377Z,49.3
2022-09-14T05:47:01.316Z,49.7
2022-09-14T05:48:01.553Z,49.5
2022-09-14T05:49:01.490Z,49.2
2022-09-14T05:50:01.679Z,48.9
2022-09-14T05:51:01.116Z,49.1
2022-09-14T05:52:01.083Z,48.4
2022-09-14T05:53:01.113Z,47.9
2022-09-14T05:54:01.098Z,47.5
2022-09-14T05:55:01.396Z,47.3
2022-09-14T05:56:01.483Z,46.9
2022-09-14T05:57:02.915Z,47.2
2022-09-14T05:58:01.436Z,47.5
2022-09-14T05:59:01.508Z,47.5
2022-09-14T06:00:01.001Z,48.8
2022-09-14T06:01:01.062Z,49.5
2022-09-14T06:02:01.154Z,50.1
2022-09-14T06:03:01.075Z,49.5
2022-09-14T06:04:01.067Z,49.9
2022-09-14T06:05:01.018Z,50
2022-09-14T06:06:01.189Z,50.2
2022-09-14T06:07:18.020Z,50.9
2022-09-14T06:08:01.703Z,51.2
2022-09-14T06:09:01.116Z,52.1
2022-09-14T06:10:01.818Z,52.7
2022-09-14T06:11:01.114Z,52.9
2022-09-14T06:12:01.124Z,52
2022-09-14T06:13:01.502Z,51.3
2022-09-14T06:14:01.529Z,50.7
2022-09-14T06:15:01.217Z,50
2022-09-14T06:16:01.159Z,49.2
2022-09-14T06:17:01.151Z,48.8
2022-09-14T06:18:01.077Z,50.4
2022-09-14T06:19:01.401Z,50.5
2022-09-14T06:20:04.612Z,50.9
2022-09-14T06:21:02.105Z,50.7
2022-09-14T06:22:01.090Z,50.4
2022-09-14T06:23:01.040Z,50.2
2022-09-14T06:24:04.258Z,49.8
2022-09-14T06:25:01.040Z,49.5
2022-09-14T06:26:01.106Z,48.5
2022-09-14T06:27:01.109Z,48
2022-09-14T06:28:01.127Z,48
2022-09-14T06:29:01.131Z,48.4
2022-09-14T06:30:01.079Z,47.7
2022-09-14T06:31:02.724Z,47.4
2022-09-14T06:32:02.684Z,46.9
2022-09-14T06:33:01.480Z,45.6
2022-09-14T06:34:02.869Z,45.4
2022-09-14T06:35:04.013Z,44.7
2022-09-14T06:36:04.574Z,44.7
2022-09-14T06:37:01.098Z,44.7
2022-09-14T06:38:01.110Z,44.5
2022-09-14T06:39:01.040Z,46.3
2022-09-14T06:40:06.469Z,46.9
2022-09-14T06:41:01.503Z,46.3
2022-09-14T06:42:01.116Z,46.8
2022-09-14T06:43:01.055Z,46.3
2022-09-14T06:44:01.353Z,46.2
2022-09-14T06:45:08.719Z,45.8
2022-09-14T06:46:01.456Z,45.3
2022-09-14T06:47:01.141Z,44.9
2022-09-14T06:48:01.058Z,43.9
2022-09-14T06:49:01.064Z,43.6
2022-09-14T06:50:11.641Z,43.2
2022-09-14T06:51:01.446Z,42.9
2022-09-14T06:52:01.159Z,43.1
2022-09-14T06:53:01.092Z,42.9
2022-09-14T06:54:01.040Z,42.6
2022-09-14T06:55:14.655Z,42.1
2022-09-14T06:56:01.119Z,42.2
2022-09-14T06:57:01.140Z,40.7
2022-09-14T06:58:01.117Z,39.6
2022-09-14T06:59:01.389Z,39.2
2022-09-14T07:00:16.817Z,37.2
2022-09-14T07:01:01.125Z,35.5
2022-09-14T07:02:01.165Z,36.3
2022-09-14T07:03:01.220Z,36.8
2022-09-14T07:04:01.870Z,36.8
2022-09-14T07:05:01.861Z,36.5
2022-09-14T07:06:01.050Z,35.1
2022-09-14T07:07:01.077Z,34.9
2022-09-14T07:08:01.076Z,35.1
2022-09-14T07:09:01.305Z,35.2
2022-09-14T07:10:01.300Z,35.2
2022-09-14T07:11:01.094Z,34.8
2022-09-14T07:12:01.126Z,34
2022-09-14T07:13:01.255Z,34.1
2022-09-14T07:14:01.108Z,33.4
2022-09-14T07:15:01.156Z,33.3
2022-09-14T07:16:01.127Z,32.9
2022-09-14T07:17:01.359Z,31.3
2022-09-14T07:18:01.485Z,31
2022-09-14T07:19:01.475Z,29.5
2022-09-14T07:20:01.443Z,29.2
2022-09-14T07:21:05.272Z,29.2
2022-09-14T07:22:01.335Z,27.8
2022-09-14T07:23:01.944Z,26.3
2022-09-14T07:24:01.995Z,26.6
2022-09-14T07:25:01.084Z,26.5
2022-09-14T07:26:01.471Z,26.8
2022-09-14T07:27:01.089Z,26.9
2022-09-14T07:28:01.034Z,24.9
2022-09-14T07:29:01.059Z,24
2022-09-14T07:30:01.154Z,23.3
2022-09-14T07:31:01.268Z,23.6
2022-09-14T07:32:00.913Z,22.9
2022-09-14T07:33:01.414Z,22.1
2022-09-14T07:34:01.048Z,21.8
2022-09-14T07:35:01.065Z,22.2
2022-09-14T07:36:00.746Z,22.8
2022-09-14T07:37:00.339Z,21.5
2022-09-14T07:38:00.020Z,21.9
2022-09-14T07:38:59.635Z,21.3
2022-09-14T07:40:01.548Z,21
2022-09-14T07:41:01.816Z,21.6
2022-09-14T07:42:01.390Z,21.5
2022-09-14T07:43:01.038Z,21.8
2022-09-14T07:44:01.112Z,21.2
2022-09-14T07:45:00.689Z,20.7
2022-09-14T07:46:00.516Z,20.3
2022-09-14T07:47:00.188Z,19.8
2022-09-14T07:47:59.785Z,20.1
2022-09-14T07:49:01.559Z,20.7
2022-09-14T07:50:01.175Z,20.1
2022-09-14T07:51:01.144Z,20.6
2022-09-14T07:52:00.842Z,19.7
2022-09-14T07:53:00.470Z,19.8
2022-09-14T07:54:00.458Z,19.2
2022-09-14T07:55:00.120Z,19.5
2022-09-14T07:55:59.737Z,19.1
2022-09-14T07:57:01.901Z,18.5
2022-09-14T07:58:01.091Z,18.8
2022-09-14T07:59:17.663Z,19
2022-09-14T08:00:01.115Z,19.1
2022-09-14T08:01:01.994Z,19.4
2022-09-14T08:02:02.144Z,19.7
2022-09-14T08:03:02.437Z,20.1
2022-09-14T08:04:08.529Z,19.5
2022-09-14T08:05:02.093Z,18.4
2022-09-14T08:06:01.074Z,17.3
2022-09-14T08:07:01.881Z,17.8
2022-09-14T08:08:01.445Z,18.1
2022-09-14T08:09:01.502Z,18.3
2022-09-14T08:10:01.211Z,18.5
2022-09-14T08:11:02.787Z,18.5
2022-09-14T08:12:01.569Z,18.3
2022-09-14T08:13:02.246Z,18.3
2022-09-14T08:14:02.748Z,18
2022-09-14T08:15:01.405Z,17.5
2022-09-14T08:16:05.170Z,17.9
2022-09-14T08:17:01.181Z,17.7
2022-09-14T08:18:01.531Z,18.3
2022-09-14T08:19:01.186Z,17.8
2022-09-14T08:20:01.203Z,18.4
2022-09-14T08:21:08.497Z,18.6
2022-09-14T08:22:01.158Z,18.6
2022-09-14T08:23:00.754Z,18.6
2022-09-14T08:24:00.303Z,18.8
2022-09-14T08:24:59.923Z,18.9
2022-09-14T08:26:10.015Z,18.7
2022-09-14T08:27:01.113Z,18.7
2022-09-14T08:28:01.089Z,18.8
2022-09-14T08:29:01.261Z,18.3
2022-09-14T08:30:01.133Z,18.9
2022-09-14T08:31:11.717Z,17.6
2022-09-14T08:32:01.309Z,17.2
2022-09-14T08:33:01.970Z,17
2022-09-14T08:34:01.139Z,16.8
2022-09-14T08:35:01.149Z,16.5
2022-09-14T08:36:14.365Z,16.6
2022-09-14T08:37:01.717Z,16.9
2022-09-14T08:38:01.319Z,16.9
2022-09-14T08:39:01.352Z,17.1
2022-09-14T08:40:02.693Z,16.9
2022-09-14T08:41:16.719Z,16.9
2022-09-14T08:42:01.410Z,16.1
2022-09-14T08:43:01.049Z,16.1
2022-09-14T08:44:01.111Z,15.7
2022-09-14T08:45:01.922Z,16
2022-09-14T08:46:01.477Z,16
2022-09-14T08:47:02.482Z,16.4
2022-09-14T08:48:02.174Z,16.3
2022-09-14T08:49:02.165Z,16.1
2022-09-14T08:50:02.236Z,16
2022-09-14T08:51:01.171Z,16.4
2022-09-14T08:52:00.840Z,15.5
2022-09-14T08:53:00.446Z,15
2022-09-14T08:54:00.030Z,14.8
2022-09-14T08:54:59.619Z,15.1
2022-09-14T08:56:01.737Z,15.3
2022-09-14T08:57:01.975Z,15.3
2022-09-14T08:58:02.282Z,15.6
2022-09-14T08:59:01.094Z,15.3
2022-09-14T09:00:01.101Z,15.6
2022-09-14T09:01:01.913Z,15.4
2022-09-14T09:02:02.067Z,15.5
2022-09-14T09:03:01.162Z,15.2
2022-09-14T09:04:01.203Z,14.7
2022-09-14T09:05:01.119Z,14.6
2022-09-14T09:06:01.199Z,14.6
2022-09-14T09:07:01.158Z,14.2
2022-09-14T09:08:01.139Z,14
2022-09-14T09:09:01.773Z,13.9
2022-09-14T09:10:01.722Z,13.6
2022-09-14T09:11:01.349Z,13.5
2022-09-14T09:12:01.074Z,12.9
2022-09-14T09:13:01.081Z,12.2
2022-09-14T09:14:01.089Z,11.2
2022-09-14T09:15:01.089Z,11.4
2022-09-14T09:16:01.168Z,11
2022-09-14T09:17:01.475Z,11.2
2022-09-14T09:18:02.570Z,10.3
2022-09-14T09:19:01.132Z,10.6
2022-09-14T09:20:01.114Z,10.7
2022-09-14T09:21:01.140Z,10.2
2022-09-14T09:22:01.156Z,10.3
2022-09-14T09:23:01.140Z,10.6
2022-09-14T09:24:01.777Z,10.9
2022-09-14T09:25:01.793Z,10.6
2022-09-14T09:26:01.068Z,10.8
2022-09-14T09:27:01.454Z,10.3
2022-09-14T09:28:01.182Z,10.2
2022-09-14T09:29:01.098Z,10.5
2022-09-14T09:30:01.073Z,10.3
2022-09-14T09:31:01.222Z,10.6
2022-09-14T09:32:01.060Z,10.1
2022-09-14T09:33:01.807Z,9
2022-09-14T09:34:01.199Z,9.2
2022-09-14T09:35:01.540Z,9
2022-09-14T09:36:01.336Z,9
2022-09-14T09:37:01.150Z,9.2
2022-09-14T09:38:01.136Z,9.3
2022-09-14T09:39:04.926Z,9.2
2022-09-14T09:40:01.767Z,9.2
2022-09-14T09:41:01.722Z,9.3
2022-09-14T09:42:01.074Z,9.5
2022-09-14T09:43:01.079Z,9.3
2022-09-14T09:44:01.359Z,9.6
2022-09-14T09:45:03.697Z,9.7
2022-09-14T09:46:02.104Z,9.9
2022-09-14T09:47:01.893Z,9.8
2022-09-14T09:48:01.423Z,10.1
2022-09-14T09:49:01.346Z,9.9
2022-09-14T09:50:02.438Z,9.5
2022-09-14T09:51:02.456Z,8.6
2022-09-14T09:52:01.141Z,8.1
2022-09-14T09:53:06.570Z,8.2
2022-09-14T09:54:02.148Z,8.5
2022-09-14T09:55:01.154Z,8.7
2022-09-14T09:56:01.040Z,8.5
2022-09-14T09:57:01.048Z,8.6
2022-09-14T09:58:01.069Z,8.4
2022-09-14T09:59:01.078Z,8.2
2022-09-14T10:00:01.068Z,7.8
2022-09-14T10:01:01.223Z,7.5
2022-09-14T10:02:01.933Z,7.1
2022-09-14T10:03:01.138Z,7.1
2022-09-14T10:04:01.157Z,6.8
2022-09-14T10:05:01.273Z,6.9
2022-09-14T10:06:01.282Z,7.2
2022-09-14T10:07:01.897Z,7.6
2022-09-14T10:08:01.143Z,7.1
2022-09-14T10:09:00.622Z,7.6
2022-09-14T10:10:00.249Z,7.4
2022-09-14T10:10:59.900Z,7.2
2022-09-14T10:12:03.572Z,7.7
2022-09-14T10:13:00.775Z,7.2
2022-09-14T10:14:00.459Z,6
2022-09-14T10:15:00.445Z,6.7
2022-09-14T10:16:00.134Z,6.4
2022-09-14T10:17:05.995Z,7.4
2022-09-14T10:18:01.476Z,6
2022-09-14T10:19:01.415Z,5.3
2022-09-14T10:20:01.333Z,5.8
2022-09-14T10:21:00.994Z,6.3
2022-09-14T10:22:09.826Z,6
2022-09-14T10:23:01.139Z,4.6
2022-09-14T10:24:01.509Z,3.5
2022-09-14T10:25:01.909Z,3.3
2022-09-14T10:26:01.135Z,3.6
2022-09-14T10:27:13.639Z,4
2022-09-14T10:28:01.063Z,3.8
2022-09-14T10:29:01.211Z,4.1
2022-09-14T10:30:01.161Z,5.8
2022-09-14T10:31:01.454Z,5.4
2022-09-14T10:32:16.338Z,4.5
2022-09-14T10:33:02.151Z,4.7
2022-09-14T10:34:02.118Z,5
2022-09-14T10:35:01.378Z,5.4
2022-09-14T10:36:01.105Z,5.5
2022-09-14T10:37:01.106Z,6
2022-09-14T10:38:01.134Z,5.7
2022-09-14T10:39:01.141Z,5.4
2022-09-14T10:40:01.385Z,4.9
2022-09-14T10:41:01.891Z,5.1
2022-09-14T10:42:01.422Z,5.6
2022-09-14T10:43:01.186Z,6.6
2022-09-14T10:44:01.072Z,6.8
2022-09-14T10:45:01.072Z,6.6
2022-09-14T10:46:01.094Z,6.6
2022-09-14T10:47:04.528Z,7.1
2022-09-14T10:48:01.109Z,7.3
2022-09-14T10:49:01.388Z,6.9
2022-09-14T10:50:01.402Z,6.6
2022-09-14T10:51:01.489Z,6.4
2022-09-14T10:52:02.022Z,6.6
2022-09-14T10:53:01.040Z,6.7
2022-09-14T10:54:01.124Z,6.7
2022-09-14T10:55:01.132Z,6.9
2022-09-14T10:56:01.889Z,6.9
2022-09-14T10:57:01.875Z,7
2022-09-14T10:58:01.554Z,6.9
2022-09-14T10:59:00.452Z,6.7
2022-09-14T11:00:00.017Z,6.9
2022-09-14T11:00:59.720Z,7.7
2022-09-14T11:02:01.558Z,7.4
2022-09-14T11:03:01.257Z,7
2022-09-14T11:04:01.986Z,7
2022-09-14T11:05:02.100Z,7
2022-09-14T11:06:02.146Z,7
2022-09-14T11:07:01.105Z,6.7
2022-09-14T11:08:01.134Z,5.6
2022-09-14T11:09:01.119Z,5.4
2022-09-14T11:10:01.124Z,5.4
2022-09-14T11:11:01.130Z,5.7
2022-09-14T11:12:01.171Z,6.1
2022-09-14T11:13:01.074Z,5.6
2022-09-14T11:14:01.437Z,5.4
2022-09-14T11:15:01.466Z,5.6
2022-09-14T11:16:01.282Z,5.4
2022-09-14T11:17:01.065Z,4.8
2022-09-14T11:18:01.095Z,4.8
2022-09-14T11:19:01.077Z,5.4
2022-09-14T11:20:01.144Z,4.5
2022-09-14T11:21:01.095Z,4.5
2022-09-14T11:22:01.102Z,4.1
2022-09-14T11:23:01.244Z,3.8
2022-09-14T11:24:01.525Z,3.3
2022-09-14T11:25:01.123Z,3.3
2022-09-14T11:26:01.188Z,3.9
2022-09-14T11:27:01.144Z,4
2022-09-14T11:28:01.130Z,4.3
2022-09-14T11:29:01.160Z,4.6
2022-09-14T11:30:01.885Z,4.1
2022-09-14T11:31:02.713Z,4.1
2022-09-14T11:32:19.683Z,4.2
2022-09-14T11:33:02.262Z,4.3
2022-09-14T11:34:01.807Z,3.9
2022-09-14T11:35:02.202Z,3.5
2022-09-14T11:36:02.758Z,3.8
2022-09-14T11:37:01.131Z,4.1
2022-09-14T11:38:01.118Z,4.1
2022-09-14T11:39:04.756Z,4
2022-09-14T11:40:01.417Z,4
2022-09-14T11:41:01.393Z,4.9
2022-09-14T11:42:01.529Z,4.4
2022-09-14T11:43:02.064Z,4.8
2022-09-14T11:44:01.091Z,4.6
2022-09-14T11:45:01.059Z,4.1
2022-09-14T11:46:01.120Z,3.8
2022-09-14T11:47:01.167Z,4.1
2022-09-14T11:48:00.738Z,4.3
2022-09-14T11:49:00.344Z,4.3
2022-09-14T11:49:59.939Z,4.8
2022-09-14T11:50:59.504Z,4.7
2022-09-14T11:52:01.104Z,4.6
2022-09-14T11:53:03.099Z,4.7
2022-09-14T11:54:01.421Z,4.8
2022-09-14T11:55:01.113Z,4.8
2022-09-14T11:56:01.114Z,5
2022-09-14T11:57:01.128Z,5.2
2022-09-14T11:58:04.721Z,5.5
2022-09-14T11:59:01.137Z,5.4
2022-09-14T12:00:01.559Z,5.1
2022-09-14T12:01:02.106Z,5
2022-09-14T12:02:01.939Z,4.7
2022-09-14T12:03:08.971Z,4.8
2022-09-14T12:04:01.145Z,4.7
2022-09-14T12:05:01.079Z,4.8
2022-09-14T12:06:01.125Z,5.2
2022-09-14T12:07:01.092Z,5.4
2022-09-14T12:08:11.844Z,5.6
2022-09-14T12:09:01.081Z,5.7
2022-09-14T12:10:01.129Z,5.4
2022-09-14T12:11:01.221Z,5.6
2022-09-14T12:12:01.132Z,5.3
2022-09-14T12:13:14.359Z,5.2
2022-09-14T12:14:01.141Z,5.7
2022-09-14T12:15:01.304Z,5.4
2022-09-14T12:16:01.493Z,5.2
2022-09-14T12:17:04.109Z,5.4
2022-09-14T12:18:01.185Z,5.3
2022-09-14T12:19:01.884Z,5.4
2022-09-14T12:20:01.064Z,5.4
2022-09-14T12:21:01.085Z,5.6
2022-09-14T12:22:01.080Z,6
2022-09-14T12:23:01.092Z,6.3
2022-09-14T12:24:01.203Z,6.6
2022-09-14T12:25:01.221Z,6.4
2022-09-14T12:26:01.497Z,6.1
2022-09-14T12:27:02.075Z,5.9
2022-09-14T12:28:01.129Z,6
2022-09-14T12:29:00.710Z,6
2022-09-14T12:30:00.316Z,6.4
2022-09-14T12:31:00.285Z,6.5
2022-09-14T12:32:00.021Z,6.6
2022-09-14T12:32:59.843Z,6.6
2022-09-14T12:34:02.096Z,6.8
2022-09-14T12:35:02.232Z,7.1
2022-09-14T12:36:01.085Z,7.2
2022-09-14T12:37:01.096Z,7.5
2022-09-14T12:38:01.109Z,7.1
2022-09-14T12:39:01.110Z,7.1
2022-09-14T12:40:01.229Z,7.4
2022-09-14T12:41:01.040Z,7.2
2022-09-14T12:42:01.108Z,7.2
2022-09-14T12:43:01.123Z,7.3
2022-09-14T12:44:01.699Z,7.2
2022-09-14T12:45:01.160Z,7.3
2022-09-14T12:46:01.118Z,7.2
2022-09-14T12:47:01.057Z,7.1
2022-09-14T12:48:01.060Z,6.8
2022-09-14T12:49:01.066Z,6.7
2022-09-14T12:50:01.075Z,6.7
2022-09-14T12:51:01.078Z,7.2
2022-09-14T12:52:00.663Z,6.9
2022-09-14T12:53:00.376Z,6.4
2022-09-14T12:54:00.001Z,6.4
2022-09-14T12:55:00.185Z,6.3
2022-09-14T12:55:59.889Z,6.1
2022-09-14T12:56:59.442Z,6.7
2022-09-14T12:58:02.522Z,6.4
2022-09-14T12:59:02.602Z,6.6
2022-09-14T13:00:02.575Z,6.6
2022-09-14T13:01:01.297Z,6.8
2022-09-14T13:02:01.491Z,6.6
2022-09-14T13:03:01.447Z,6.9
2022-09-14T13:04:02.586Z,7
2022-09-14T13:05:01.039Z,7.4
2022-09-14T13:06:01.063Z,7.1
2022-09-14T13:07:01.113Z,7.4
2022-09-14T13:08:01.127Z,7.6
2022-09-14T13:09:07.474Z,7.8
2022-09-14T13:10:01.406Z,7.6
2022-09-14T13:11:02.039Z,7.6
2022-09-14T13:12:01.234Z,7.6
2022-09-14T13:13:01.128Z,7.4
2022-09-14T13:14:01.360Z,7.7
2022-09-14T13:15:01.122Z,7.9
2022-09-14T13:16:01.237Z,7.9
2022-09-14T13:17:01.972Z,7.7
2022-09-14T13:18:02.129Z,7.8
2022-09-14T13:19:01.054Z,8.7
2022-09-14T13:20:01.093Z,8.8
2022-09-14T13:21:01.080Z,8.2
2022-09-14T13:22:01.072Z,8.6
2022-09-14T13:23:01.096Z,8.4
2022-09-14T13:24:01.056Z,7.9
2022-09-14T13:25:00.774Z,7.9
2022-09-14T13:26:00.474Z,8.3
2022-09-14T13:27:00.195Z,8.5
2022-09-14T13:27:59.870Z,8.7
2022-09-14T13:29:01.522Z,7.7
2022-09-14T13:30:01.704Z,8.2
2022-09-14T13:31:01.316Z,7.9